sensor_id;sensor_type;location;lat;lon;timestamp;pressure;altitude;pressure_sealevel;temperature;humidity
32933;BME280;19444;50.518;10.870;2023-02-03T00:02:10;97233.34;;;0.56;100.00
32933;BME280;19444;50.518;10.870;2023-02-03T00:05:07;97247.78;;;0.53;100.00
32933;BME280;19444;50.518;10.870;2023-02-03T00:08:04;97242.38;;;0.48;100.00
32933;BME280;19444;50.518;10.870;2023-02-03T00:11:03;97241.81;;;0.46;100.00
32933;BME280;19444;50.518;10.870;2023-02-03T00:14:00;97226.34;;;0.50;100.00
32933;BME280;19444;50.518;10.870;2023-02-03T00:16:57;97241.34;;;0.49;100.00
32933;BME280;19444;50.518;10.870;2023-02-03T00:19:53;97221.88;;;0.50;100.00
32933;BME280;19444;50.518;10.870;2023-02-03T00:22:50;97225.78;;;0.60;100.00
32933;BME280;19444;50.518;10.870;2023-02-03T00:25:47;97224.28;;;0.52;100.00
32933;BME280;19444;50.518;10.870;2023-02-03T00:28:44;97217.06;;;0.47;100.00
32933;BME280;19444;50.518;10.870;2023-02-03T00:31:41;97220.72;;;0.46;100.00
32933;BME280;19444;50.518;10.870;2023-02-03T00:34:38;97212.66;;;0.41;100.00
32933;BME280;19444;50.518;10.870;2023-02-03T00:37:34;97210.50;;;0.50;100.00
32933;BME280;19444;50.518;10.870;2023-02-03T00:40:31;97212.69;;;0.53;100.00
32933;BME280;19444;50.518;10.870;2023-02-03T00:43:28;97198.03;;;0.57;100.00
32933;BME280;19444;50.518;10.870;2023-02-03T00:46:25;97207.66;;;0.51;100.00
32933;BME280;19444;50.518;10.870;2023-02-03T00:49:21;97202.50;;;0.56;100.00
32933;BME280;19444;50.518;10.870;2023-02-03T00:52:18;97201.34;;;0.52;100.00
32933;BME280;19444;50.518;10.870;2023-02-03T00:55:15;97195.16;;;0.47;100.00
32933;BME280;19444;50.518;10.870;2023-02-03T00:58:12;97196.44;;;0.56;100.00
32933;BME280;19444;50.518;10.870;2023-02-03T01:01:08;97178.88;;;0.62;100.00
32933;BME280;19444;50.518;10.870;2023-02-03T01:04:06;97177.50;;;0.59;100.00
32933;BME280;19444;50.518;10.870;2023-02-03T01:07:03;97178.22;;;0.66;100.00
32933;BME280;19444;50.518;10.870;2023-02-03T01:10:00;97166.72;;;0.61;100.00
32933;BME280;19444;50.518;10.870;2023-02-03T01:12:57;97169.94;;;0.63;100.00
32933;BME280;19444;50.518;10.870;2023-02-03T01:15:53;97164.47;;;0.64;100.00
32933;BME280;19444;50.518;10.870;2023-02-03T01:18:50;97160.19;;;0.63;100.00
32933;BME280;19444;50.518;10.870;2023-02-03T01:21:47;97162.25;;;0.73;100.00
32933;BME280;19444;50.518;10.870;2023-02-03T01:24:44;97154.13;;;0.74;100.00
32933;BME280;19444;50.518;10.870;2023-02-03T01:27:41;97150.22;;;0.77;100.00
32933;BME280;19444;50.518;10.870;2023-02-03T01:30:37;97148.06;;;0.74;100.00
32933;BME280;19444;50.518;10.870;2023-02-03T01:33:34;97142.56;;;0.75;100.00
32933;BME280;19444;50.518;10.870;2023-02-03T01:36:32;97130.72;;;0.78;100.00
32933;BME280;19444;50.518;10.870;2023-02-03T01:39:30;97112.59;;;0.81;100.00
32933;BME280;19444;50.518;10.870;2023-02-03T01:42:27;97112.50;;;0.88;100.00
32933;BME280;19444;50.518;10.870;2023-02-03T01:45:27;97105.94;;;0.91;100.00
32933;BME280;19444;50.518;10.870;2023-02-03T01:48:24;97111.09;;;0.97;100.00
32933;BME280;19444;50.518;10.870;2023-02-03T01:51:21;97121.88;;;1.07;100.00
32933;BME280;19444;50.518;10.870;2023-02-03T01:54:23;97131.16;;;1.22;100.00
32933;BME280;19444;50.518;10.870;2023-02-03T01:57:26;97118.75;;;1.34;100.00
32933;BME280;19444;50.518;10.870;2023-02-03T02:00:25;97117.13;;;1.33;100.00
32933;BME280;19444;50.518;10.870;2023-02-03T02:03:38;97108.84;;;1.41;100.00
32933;BME280;19444;50.518;10.870;2023-02-03T02:06:36;97108.75;;;1.36;100.00
32933;BME280;19444;50.518;10.870;2023-02-03T02:09:33;97111.84;;;1.73;100.00
32933;BME280;19444;50.518;10.870;2023-02-03T02:12:30;97117.72;;;1.75;100.00
32933;BME280;19444;50.518;10.870;2023-02-03T02:15:55;97116.78;;;1.69;100.00
32933;BME280;19444;50.518;10.870;2023-02-03T02:32:21;97100.22;;;2.19;100.00
32933;BME280;19444;50.518;10.870;2023-02-03T02:35:31;97107.28;;;2.14;100.00
32933;BME280;19444;50.518;10.870;2023-02-03T02:38:33;97098.56;;;2.13;100.00
32933;BME280;19444;50.518;10.870;2023-02-03T02:41:43;97085.59;;;2.12;100.00
32933;BME280;19444;50.518;10.870;2023-02-03T02:44:54;97093.69;;;2.22;100.00
32933;BME280;19444;50.518;10.870;2023-02-03T02:47:58;97106.00;;;2.16;100.00
32933;BME280;19444;50.518;10.870;2023-02-03T02:50:58;97092.53;;;2.18;100.00
32933;BME280;19444;50.518;10.870;2023-02-03T02:53:59;97087.91;;;2.25;100.00
32933;BME280;19444;50.518;10.870;2023-02-03T02:57:02;97081.91;;;2.30;100.00
32933;BME280;19444;50.518;10.870;2023-02-03T03:00:00;97086.16;;;2.31;100.00
32933;BME280;19444;50.518;10.870;2023-02-03T03:02:57;97105.00;;;2.51;100.00
32933;BME280;19444;50.518;10.870;2023-02-03T03:06:04;97114.94;;;2.61;100.00
32933;BME280;19444;50.518;10.870;2023-02-03T03:09:06;97117.41;;;2.67;100.00
32933;BME280;19444;50.518;10.870;2023-02-03T03:12:13;97128.06;;;2.72;100.00
32933;BME280;19444;50.518;10.870;2023-02-03T03:15:13;97104.88;;;2.79;100.00
32933;BME280;19444;50.518;10.870;2023-02-03T03:18:20;97090.06;;;2.62;100.00
32933;BME280;19444;50.518;10.870;2023-02-03T03:21:21;97090.84;;;2.79;100.00
32933;BME280;19444;50.518;10.870;2023-02-03T03:24:24;97088.63;;;2.71;100.00
32933;BME280;19444;50.518;10.870;2023-02-03T03:27:24;97082.13;;;2.78;100.00
32933;BME280;19444;50.518;10.870;2023-02-03T03:30:31;97088.31;;;2.67;100.00
32933;BME280;19444;50.518;10.870;2023-02-03T03:33:28;97079.91;;;2.92;100.00
32933;BME280;19444;50.518;10.870;2023-02-03T03:36:31;97086.19;;;2.86;100.00
32933;BME280;19444;50.518;10.870;2023-02-03T03:39:55;97085.72;;;2.72;100.00
32933;BME280;19444;50.518;10.870;2023-02-03T03:43:01;97091.88;;;2.95;100.00
32933;BME280;19444;50.518;10.870;2023-02-03T03:46:05;97085.84;;;2.99;100.00
32933;BME280;19444;50.518;10.870;2023-02-03T03:49:04;97084.59;;;2.85;100.00
32933;BME280;19444;50.518;10.870;2023-02-03T03:52:05;97084.97;;;2.94;100.00
32933;BME280;19444;50.518;10.870;2023-02-03T03:55:05;97061.38;;;2.92;100.00
32933;BME280;19444;50.518;10.870;2023-02-03T03:58:06;97045.94;;;3.06;100.00
32933;BME280;19444;50.518;10.870;2023-02-03T04:01:05;97029.38;;;2.94;100.00
32933;BME280;19444;50.518;10.870;2023-02-03T04:04:06;97027.50;;;3.11;100.00
32933;BME280;19444;50.518;10.870;2023-02-03T04:07:03;97049.69;;;2.88;100.00
32933;BME280;19444;50.518;10.870;2023-02-03T04:10:00;97054.19;;;2.88;100.00
32933;BME280;19444;50.518;10.870;2023-02-03T04:12:58;97059.50;;;3.09;100.00
32933;BME280;19444;50.518;10.870;2023-02-03T04:15:54;97067.31;;;2.99;100.00
32933;BME280;19444;50.518;10.870;2023-02-03T04:18:51;97056.41;;;3.18;100.00
32933;BME280;19444;50.518;10.870;2023-02-03T04:21:48;97058.56;;;2.99;100.00
32933;BME280;19444;50.518;10.870;2023-02-03T04:24:45;97061.41;;;3.14;100.00
32933;BME280;19444;50.518;10.870;2023-02-03T04:27:42;97066.31;;;3.27;100.00
32933;BME280;19444;50.518;10.870;2023-02-03T04:30:39;97077.09;;;2.99;100.00
32933;BME280;19444;50.518;10.870;2023-02-03T04:33:36;97068.22;;;2.88;100.00
32933;BME280;19444;50.518;10.870;2023-02-03T04:36:32;97070.41;;;3.13;100.00
32933;BME280;19444;50.518;10.870;2023-02-03T04:39:29;97082.66;;;3.19;100.00
32933;BME280;19444;50.518;10.870;2023-02-03T04:42:26;97080.44;;;3.33;100.00
32933;BME280;19444;50.518;10.870;2023-02-03T04:45:23;97081.75;;;3.30;100.00
32933;BME280;19444;50.518;10.870;2023-02-03T04:48:20;97086.13;;;3.41;100.00
32933;BME280;19444;50.518;10.870;2023-02-03T04:51:17;97095.03;;;3.35;100.00
32933;BME280;19444;50.518;10.870;2023-02-03T04:54:13;97074.09;;;3.34;100.00
32933;BME280;19444;50.518;10.870;2023-02-03T04:57:10;97068.25;;;3.32;100.00
32933;BME280;19444;50.518;10.870;2023-02-03T05:00:08;97056.47;;;3.45;100.00
32933;BME280;19444;50.518;10.870;2023-02-03T05:03:06;97036.03;;;3.40;100.00
32933;BME280;19444;50.518;10.870;2023-02-03T05:06:03;97007.16;;;3.38;100.00
32933;BME280;19444;50.518;10.870;2023-02-03T05:09:01;97005.47;;;3.32;100.00
32933;BME280;19444;50.518;10.870;2023-02-03T05:11:58;97003.19;;;3.41;100.00
32933;BME280;19444;50.518;10.870;2023-02-03T05:14:54;96984.13;;;3.44;100.00
32933;BME280;19444;50.518;10.870;2023-02-03T05:17:53;96995.28;;;3.46;100.00
32933;BME280;19444;50.518;10.870;2023-02-03T05:20:50;96996.41;;;3.50;100.00
32933;BME280;19444;50.518;10.870;2023-02-03T05:23:47;96992.69;;;3.51;100.00
32933;BME280;19444;50.518;10.870;2023-02-03T05:26:43;96992.50;;;3.31;100.00
32933;BME280;19444;50.518;10.870;2023-02-03T05:29:40;96988.81;;;3.37;100.00
32933;BME280;19444;50.518;10.870;2023-02-03T05:32:37;96990.19;;;3.39;100.00
32933;BME280;19444;50.518;10.870;2023-02-03T05:35:34;96969.13;;;3.55;100.00
32933;BME280;19444;50.518;10.870;2023-02-03T05:38:31;96972.19;;;3.41;100.00
32933;BME280;19444;50.518;10.870;2023-02-03T05:41:28;96943.94;;;3.52;100.00
32933;BME280;19444;50.518;10.870;2023-02-03T05:44:43;96941.03;;;3.54;100.00
32933;BME280;19444;50.518;10.870;2023-02-03T05:47:40;96942.88;;;3.53;100.00
32933;BME280;19444;50.518;10.870;2023-02-03T05:50:37;96938.09;;;3.50;100.00
32933;BME280;19444;50.518;10.870;2023-02-03T05:53:34;96941.63;;;3.61;100.00
32933;BME280;19444;50.518;10.870;2023-02-03T05:56:31;96937.41;;;3.60;100.00
32933;BME280;19444;50.518;10.870;2023-02-03T05:59:28;96953.81;;;3.57;100.00
32933;BME280;19444;50.518;10.870;2023-02-03T06:02:25;96965.94;;;3.53;100.00
32933;BME280;19444;50.518;10.870;2023-02-03T06:05:22;96940.56;;;3.57;100.00
32933;BME280;19444;50.518;10.870;2023-02-03T06:08:19;96953.03;;;3.34;100.00
32933;BME280;19444;50.518;10.870;2023-02-03T06:11:16;96959.38;;;3.60;100.00
32933;BME280;19444;50.518;10.870;2023-02-03T06:14:13;96969.13;;;3.55;100.00
32933;BME280;19444;50.518;10.870;2023-02-03T06:17:10;96972.38;;;3.62;100.00
32933;BME280;19444;50.518;10.870;2023-02-03T06:20:07;96970.00;;;3.60;100.00
32933;BME280;19444;50.518;10.870;2023-02-03T06:23:05;96959.41;;;3.65;100.00
32933;BME280;19444;50.518;10.870;2023-02-03T06:26:02;96953.88;;;3.67;100.00
32933;BME280;19444;50.518;10.870;2023-02-03T06:28:58;96972.66;;;3.65;100.00
32933;BME280;19444;50.518;10.870;2023-02-03T06:31:55;96964.97;;;3.64;100.00
32933;BME280;19444;50.518;10.870;2023-02-03T06:34:53;96953.88;;;3.67;100.00
32933;BME280;19444;50.518;10.870;2023-02-03T06:37:50;96943.31;;;3.72;100.00
32933;BME280;19444;50.518;10.870;2023-02-03T06:40:47;96942.16;;;3.58;100.00
32933;BME280;19444;50.518;10.870;2023-02-03T06:43:44;96972.38;;;3.62;100.00
32933;BME280;19444;50.518;10.870;2023-02-03T06:46:40;96972.13;;;3.63;100.00
32933;BME280;19444;50.518;10.870;2023-02-03T06:49:37;96990.31;;;3.55;100.00
32933;BME280;19444;50.518;10.870;2023-02-03T06:52:34;96993.22;;;3.53;100.00
32933;BME280;19444;50.518;10.870;2023-02-03T06:55:31;96994.38;;;3.62;100.00
32933;BME280;19444;50.518;10.870;2023-02-03T06:58:28;96995.19;;;3.63;100.00
32933;BME280;19444;50.518;10.870;2023-02-03T07:01:24;96994.03;;;3.54;100.00
32933;BME280;19444;50.518;10.870;2023-02-03T07:04:21;97014.53;;;3.63;100.00
32933;BME280;19444;50.518;10.870;2023-02-03T07:07:18;97010.81;;;3.64;100.00
32933;BME280;19444;50.518;10.870;2023-02-03T07:10:15;97015.59;;;3.62;100.00
32933;BME280;19444;50.518;10.870;2023-02-03T07:13:12;97008.19;;;3.64;100.00
32933;BME280;19444;50.518;10.870;2023-02-03T07:16:09;97003.47;;;3.71;100.00
32933;BME280;19444;50.518;10.870;2023-02-03T07:19:05;97003.53;;;3.77;100.00
32933;BME280;19444;50.518;10.870;2023-02-03T07:22:02;97002.41;;;3.67;100.00
32933;BME280;19444;50.518;10.870;2023-02-03T07:24:59;96991.34;;;3.76;100.00
32933;BME280;19444;50.518;10.870;2023-02-03T07:27:56;96971.22;;;3.80;100.00
32933;BME280;19444;50.518;10.870;2023-02-03T07:30:53;96963.00;;;3.81;100.00
32933;BME280;19444;50.518;10.870;2023-02-03T07:33:50;96961.41;;;3.80;100.00
32933;BME280;19444;50.518;10.870;2023-02-03T07:36:46;96958.50;;;3.82;100.00
32933;BME280;19444;50.518;10.870;2023-02-03T07:39:43;96987.41;;;3.83;100.00
32933;BME280;19444;50.518;10.870;2023-02-03T07:42:42;96968.06;;;3.83;100.00
32933;BME280;19444;50.518;10.870;2023-02-03T07:45:39;96971.00;;;3.86;100.00
32933;BME280;19444;50.518;10.870;2023-02-03T07:48:36;96986.59;;;3.78;100.00
32933;BME280;19444;50.518;10.870;2023-02-03T07:51:33;97002.50;;;3.83;100.00
32933;BME280;19444;50.518;10.870;2023-02-03T07:54:30;96991.97;;;3.88;100.00
32933;BME280;19444;50.518;10.870;2023-02-03T07:57:26;96980.25;;;3.84;100.00
32933;BME280;19444;50.518;10.870;2023-02-03T08:00:24;96987.75;;;3.92;100.00
32933;BME280;19444;50.518;10.870;2023-02-03T08:03:21;96982.41;;;3.87;100.00
32933;BME280;19444;50.518;10.870;2023-02-03T08:06:18;96980.06;;;3.90;100.00
32933;BME280;19444;50.518;10.870;2023-02-03T08:09:15;96982.69;;;3.85;100.00
32933;BME280;19444;50.518;10.870;2023-02-03T08:12:12;96989.84;;;3.90;100.00
32933;BME280;19444;50.518;10.870;2023-02-03T08:15:09;96987.47;;;3.88;100.00
32933;BME280;19444;50.518;10.870;2023-02-03T08:18:06;97002.59;;;3.93;100.00
32933;BME280;19444;50.518;10.870;2023-02-03T08:21:04;97005.13;;;3.78;100.00
32933;BME280;19444;50.518;10.870;2023-02-03T08:24:01;97003.81;;;3.80;100.00
32933;BME280;19444;50.518;10.870;2023-02-03T08:26:59;97003.31;;;3.83;100.00
32933;BME280;19444;50.518;10.870;2023-02-03T08:29:57;97006.53;;;3.85;100.00
32933;BME280;19444;50.518;10.870;2023-02-03T08:32:53;96997.22;;;3.83;100.00
32933;BME280;19444;50.518;10.870;2023-02-03T08:35:50;97004.16;;;3.89;100.00
32933;BME280;19444;50.518;10.870;2023-02-03T08:38:47;96993.84;;;3.92;100.00
32933;BME280;19444;50.518;10.870;2023-02-03T08:41:44;96996.50;;;3.92;100.00
32933;BME280;19444;50.518;10.870;2023-02-03T08:44:40;97009.28;;;3.95;100.00
32933;BME280;19444;50.518;10.870;2023-02-03T08:47:39;96991.25;;;3.97;100.00
32933;BME280;19444;50.518;10.870;2023-02-03T08:50:36;96990.13;;;3.88;100.00
32933;BME280;19444;50.518;10.870;2023-02-03T08:53:33;96963.88;;;3.92;100.00
32933;BME280;19444;50.518;10.870;2023-02-03T08:56:30;96950.63;;;3.92;100.00
32933;BME280;19444;50.518;10.870;2023-02-03T08:59:29;96953.34;;;4.02;100.00
32933;BME280;19444;50.518;10.870;2023-02-03T09:02:26;96958.91;;;4.00;100.00
32933;BME280;19444;50.518;10.870;2023-02-03T09:05:23;96963.69;;;3.98;100.00
32933;BME280;19444;50.518;10.870;2023-02-03T09:08:20;96960.50;;;3.96;100.00
32933;BME280;19444;50.518;10.870;2023-02-03T09:11:17;96968.38;;;3.91;100.00
32933;BME280;19444;50.518;10.870;2023-02-03T09:27:26;96954.94;;;3.98;100.00
32933;BME280;19444;50.518;10.870;2023-02-03T09:30:23;96954.88;;;3.93;100.00
32933;BME280;19444;50.518;10.870;2023-02-03T09:33:20;96957.38;;;4.10;100.00
32933;BME280;19444;50.518;10.870;2023-02-03T09:36:17;96950.22;;;4.10;100.00
32933;BME280;19444;50.518;10.870;2023-02-03T09:39:14;96951.81;;;4.11;100.00
32933;BME280;19444;50.518;10.870;2023-02-03T09:42:49;96957.44;;;4.15;100.00
32933;BME280;19444;50.518;10.870;2023-02-03T09:45:50;96948.34;;;4.06;100.00
32933;BME280;19444;50.518;10.870;2023-02-03T09:48:58;96936.75;;;4.17;100.00
32933;BME280;19444;50.518;10.870;2023-02-03T09:52:20;96938.88;;;4.15;100.00
32933;BME280;19444;50.518;10.870;2023-02-03T09:55:41;96927.72;;;4.13;100.00
32933;BME280;19444;50.518;10.870;2023-02-03T09:58:38;96919.00;;;4.17;100.00
32933;BME280;19444;50.518;10.870;2023-02-03T10:02:14;96904.41;;;4.15;100.00
32933;BME280;19444;50.518;10.870;2023-02-03T10:05:48;96905.19;;;4.15;100.00
32933;BME280;19444;50.518;10.870;2023-02-03T10:12:46;96878.72;;;4.25;100.00
32933;BME280;19444;50.518;10.870;2023-02-03T10:16:28;96887.97;;;4.18;100.00
32933;BME280;19444;50.518;10.870;2023-02-03T10:20:11;96900.22;;;4.29;100.00
32933;BME280;19444;50.518;10.870;2023-02-03T10:23:16;96890.41;;;4.29;100.00
32933;BME280;19444;50.518;10.870;2023-02-03T10:26:20;96882.44;;;4.24;100.00
32933;BME280;19444;50.518;10.870;2023-02-03T10:29:38;96876.09;;;4.31;100.00
32933;BME280;19444;50.518;10.870;2023-02-03T10:32:38;96876.66;;;4.38;100.00
32933;BME280;19444;50.518;10.870;2023-02-03T10:35:49;96863.63;;;4.31;100.00
32933;BME280;19444;50.518;10.870;2023-02-03T10:42:06;96869.22;;;4.35;100.00
32933;BME280;19444;50.518;10.870;2023-02-03T10:45:05;96854.63;;;4.32;100.00
32933;BME280;19444;50.518;10.870;2023-02-03T10:48:04;96852.22;;;4.36;100.00
32933;BME280;19444;50.518;10.870;2023-02-03T10:51:02;96848.81;;;4.40;100.00
32933;BME280;19444;50.518;10.870;2023-02-03T10:54:00;96835.00;;;4.38;100.00
32933;BME280;19444;50.518;10.870;2023-02-03T10:57:10;96838.22;;;4.40;100.00
32933;BME280;19444;50.518;10.870;2023-02-03T11:00:30;96827.81;;;4.34;100.00
32933;BME280;19444;50.518;10.870;2023-02-03T11:03:28;96849.63;;;4.41;100.00
32933;BME280;19444;50.518;10.870;2023-02-03T11:06:26;96846.97;;;4.41;100.00
32933;BME280;19444;50.518;10.870;2023-02-03T11:09:50;96832.91;;;4.45;100.00
32933;BME280;19444;50.518;10.870;2023-02-03T11:12:47;96840.91;;;4.50;100.00
32933;BME280;19444;50.518;10.870;2023-02-03T11:15:54;96821.53;;;4.55;100.00
32933;BME280;19444;50.518;10.870;2023-02-03T11:21:55;96826.84;;;4.65;100.00
32933;BME280;19444;50.518;10.870;2023-02-03T11:24:53;96799.78;;;4.63;100.00
32933;BME280;19444;50.518;10.870;2023-02-03T11:27:50;96802.19;;;4.60;100.00
32933;BME280;19444;50.518;10.870;2023-02-03T11:30:55;96790.75;;;4.59;100.00
32933;BME280;19444;50.518;10.870;2023-02-03T11:34:00;96791.28;;;4.51;100.00
32933;BME280;19444;50.518;10.870;2023-02-03T11:37:38;96779.31;;;4.53;100.00
32933;BME280;19444;50.518;10.870;2023-02-03T11:40:35;96778.25;;;4.49;100.00
32933;BME280;19444;50.518;10.870;2023-02-03T11:43:34;96784.09;;;4.56;100.00
32933;BME280;19444;50.518;10.870;2023-02-03T11:46:39;96775.09;;;4.63;100.00
32933;BME280;19444;50.518;10.870;2023-02-03T11:50:02;96766.09;;;4.69;100.00
32933;BME280;19444;50.518;10.870;2023-02-03T11:57:14;96756.00;;;4.71;100.00
32933;BME280;19444;50.518;10.870;2023-02-03T12:00:30;96754.13;;;4.61;100.00
32933;BME280;19444;50.518;10.870;2023-02-03T12:04:00;96739.81;;;4.67;100.00
32933;BME280;19444;50.518;10.870;2023-02-03T12:07:46;96733.72;;;4.67;100.00
32933;BME280;19444;50.518;10.870;2023-02-03T12:11:21;96742.72;;;4.66;100.00
32933;BME280;19444;50.518;10.870;2023-02-03T12:15:02;96723.63;;;4.59;100.00
32933;BME280;19444;50.518;10.870;2023-02-03T12:18:44;96700.25;;;4.81;100.00
32933;BME280;19444;50.518;10.870;2023-02-03T12:21:50;96711.41;;;4.73;100.00
32933;BME280;19444;50.518;10.870;2023-02-03T12:25:42;96686.16;;;4.75;100.00
32933;BME280;19444;50.518;10.870;2023-02-03T12:38:33;96680.63;;;4.97;100.00
32933;BME280;19444;50.518;10.870;2023-02-03T12:41:45;96698.41;;;4.87;100.00
32933;BME280;19444;50.518;10.870;2023-02-03T12:45:04;96684.06;;;4.88;100.00
32933;BME280;19444;50.518;10.870;2023-02-03T12:48:11;96706.63;;;4.90;100.00
32933;BME280;19444;50.518;10.870;2023-02-03T12:51:23;96709.81;;;4.87;100.00
32933;BME280;19444;50.518;10.870;2023-02-03T12:55:13;96705.03;;;4.84;100.00
32933;BME280;19444;50.518;10.870;2023-02-03T12:58:24;96701.31;;;4.90;100.00
32933;BME280;19444;50.518;10.870;2023-02-03T13:01:36;96707.94;;;5.03;100.00
32933;BME280;19444;50.518;10.870;2023-02-03T13:04:56;96672.09;;;5.10;100.00
32933;BME280;19444;50.518;10.870;2023-02-03T13:08:40;96672.09;;;5.10;100.00
32933;BME280;19444;50.518;10.870;2023-02-03T13:11:51;96685.06;;;5.37;100.00
32933;BME280;19444;50.518;10.870;2023-02-03T13:17:58;96730.53;;;5.16;100.00
32933;BME280;19444;50.518;10.870;2023-02-03T13:20:58;96728.69;;;5.06;100.00
32933;BME280;19444;50.518;10.870;2023-02-03T13:23:55;96710.59;;;5.23;100.00
32933;BME280;19444;50.518;10.870;2023-02-03T13:38:06;96735.28;;;5.34;100.00
32933;BME280;19444;50.518;10.870;2023-02-03T13:41:21;96739.25;;;5.52;100.00
32933;BME280;19444;50.518;10.870;2023-02-03T13:44:26;96745.66;;;5.35;100.00
32933;BME280;19444;50.518;10.870;2023-02-03T13:47:29;96742.97;;;5.46;100.00
32933;BME280;19444;50.518;10.870;2023-02-03T13:50:28;96738.75;;;5.39;100.00
32933;BME280;19444;50.518;10.870;2023-02-03T13:53:37;96728.34;;;5.48;100.00
32933;BME280;19444;50.518;10.870;2023-02-03T13:56:35;96725.97;;;5.52;100.00
32933;BME280;19444;50.518;10.870;2023-02-03T13:59:44;96721.44;;;5.52;100.00
32933;BME280;19444;50.518;10.870;2023-02-03T14:02:50;96737.66;;;5.56;100.00
32933;BME280;19444;50.518;10.870;2023-02-03T14:05:52;96742.69;;;5.57;100.00
32933;BME280;19444;50.518;10.870;2023-02-03T14:08:50;96756.28;;;5.51;100.00
32933;BME280;19444;50.518;10.870;2023-02-03T14:11:52;96754.38;;;5.61;100.00
32933;BME280;19444;50.518;10.870;2023-02-03T14:18:38;96767.13;;;5.64;100.00
32933;BME280;19444;50.518;10.870;2023-02-03T14:22:16;96762.63;;;5.70;100.00
32933;BME280;19444;50.518;10.870;2023-02-03T14:25:17;96754.38;;;5.61;100.00
32933;BME280;19444;50.518;10.870;2023-02-03T14:28:37;96758.66;;;5.67;100.00
32933;BME280;19444;50.518;10.870;2023-02-03T14:32:05;96771.13;;;5.62;100.00
32933;BME280;19444;50.518;10.870;2023-02-03T14:35:16;96780.69;;;5.63;100.00
32933;BME280;19444;50.518;10.870;2023-02-03T14:38:14;96758.91;;;5.56;100.00
32933;BME280;19444;50.518;10.870;2023-02-03T14:41:20;96755.97;;;5.62;100.00
32933;BME280;19444;50.518;10.870;2023-02-03T14:44:29;96756.78;;;5.63;100.00
32933;BME280;19444;50.518;10.870;2023-02-03T14:51:20;96720.09;;;5.60;100.00
32933;BME280;19444;50.518;10.870;2023-02-03T14:57:49;96732.06;;;5.62;100.00
32933;BME280;19444;50.518;10.870;2023-02-03T15:00:48;96742.94;;;5.66;100.00
32933;BME280;19444;50.518;10.870;2023-02-03T15:07:06;96743.19;;;5.80;100.00
32933;BME280;19444;50.518;10.870;2023-02-03T15:10:13;96747.16;;;5.82;100.00
32933;BME280;19444;50.518;10.870;2023-02-03T15:13:30;96738.41;;;5.71;100.00
32933;BME280;19444;50.518;10.870;2023-02-03T15:16:27;96751.41;;;5.83;100.00
32933;BME280;19444;50.518;10.870;2023-02-03T15:19:28;96767.63;;;5.82;100.00
32933;BME280;19444;50.518;10.870;2023-02-03T15:22:29;96778.53;;;5.85;100.00
32933;BME280;19444;50.518;10.870;2023-02-03T15:25:28;96796.91;;;5.71;100.00
32933;BME280;19444;50.518;10.870;2023-02-03T15:28:28;96801.97;;;5.68;100.00
32933;BME280;19444;50.518;10.870;2023-02-03T15:31:30;96805.38;;;5.84;100.00
32933;BME280;19444;50.518;10.870;2023-02-03T15:34:42;96797.41;;;5.84;100.00
32933;BME280;19444;50.518;10.870;2023-02-03T15:37:53;96825.63;;;5.75;100.00
32933;BME280;19444;50.518;10.870;2023-02-03T15:40:54;96811.78;;;5.88;100.00
32933;BME280;19444;50.518;10.870;2023-02-03T15:44:03;96823.50;;;5.77;100.00
32933;BME280;19444;50.518;10.870;2023-02-03T15:47:25;96839.97;;;5.94;100.00
32933;BME280;19444;50.518;10.870;2023-02-03T15:50:38;96851.16;;;5.96;100.00
32933;BME280;19444;50.518;10.870;2023-02-03T15:57:08;96858.06;;;5.77;100.00
32933;BME280;19444;50.518;10.870;2023-02-03T16:00:30;96837.06;;;5.70;100.00
32933;BME280;19444;50.518;10.870;2023-02-03T16:03:37;96835.19;;;5.70;100.00
32933;BME280;19444;50.518;10.870;2023-02-03T16:06:37;96842.66;;;5.58;100.00
32933;BME280;19444;50.518;10.870;2023-02-03T16:09:39;96850.63;;;5.63;100.00
32933;BME280;19444;50.518;10.870;2023-02-03T16:12:36;96854.06;;;5.74;100.00
32933;BME280;19444;50.518;10.870;2023-02-03T16:15:35;96858.06;;;5.56;100.00
32933;BME280;19444;50.518;10.870;2023-02-03T16:18:35;96850.63;;;5.53;100.00
32933;BME280;19444;50.518;10.870;2023-02-03T16:21:36;96843.72;;;5.57;100.00
32933;BME280;19444;50.518;10.870;2023-02-03T16:24:42;96863.94;;;5.43;100.00
32933;BME280;19444;50.518;10.870;2023-02-03T16:27:44;96857.53;;;5.44;100.00
32933;BME280;19444;50.518;10.870;2023-02-03T16:33:54;96875.38;;;5.59;100.00
32933;BME280;19444;50.518;10.870;2023-02-03T16:37:31;96878.00;;;5.43;100.00
32933;BME280;19444;50.518;10.870;2023-02-03T16:40:47;96888.91;;;5.47;100.00
32933;BME280;19444;50.518;10.870;2023-02-03T16:44:03;96887.59;;;5.50;100.00
32933;BME280;19444;50.518;10.870;2023-02-03T16:47:28;96895.00;;;5.27;100.00
32933;BME280;19444;50.518;10.870;2023-02-03T16:50:44;96900.88;;;5.39;100.00
32933;BME280;19444;50.518;10.870;2023-02-03T16:53:54;96889.94;;;5.21;100.00
32933;BME280;19444;50.518;10.870;2023-02-03T16:56:51;96908.50;;;5.05;100.00
32933;BME280;19444;50.518;10.870;2023-02-03T16:59:48;96903.72;;;5.07;100.00
32933;BME280;19444;50.518;10.870;2023-02-03T17:02:45;96914.84;;;4.99;100.00
32933;BME280;19444;50.518;10.870;2023-02-03T17:05:43;96919.94;;;5.11;100.00
32933;BME280;19444;50.518;10.870;2023-02-03T17:08:41;96936.34;;;4.93;100.00
32933;BME280;19444;50.518;10.870;2023-02-03T17:11:38;96921.81;;;5.21;100.00
32933;BME280;19444;50.518;10.870;2023-02-03T17:14:35;96929.16;;;4.88;100.00
32933;BME280;19444;50.518;10.870;2023-02-03T17:17:32;96929.72;;;4.95;100.00
32933;BME280;19444;50.518;10.870;2023-02-03T17:20:29;96934.78;;;4.97;100.00
32933;BME280;19444;50.518;10.870;2023-02-03T17:23:26;96925.47;;;4.99;100.00